createdAt,value
2023-03-16T00:00:17.612Z,94514.28
2023-03-16T00:02:44.400Z,94512.22
2023-03-16T00:05:12.921Z,94512.66
2023-03-16T00:07:39.789Z,94509.22
2023-03-16T00:10:07.046Z,94500.19
2023-03-16T00:12:34.705Z,94505.41
2023-03-16T00:15:01.928Z,94507.66
2023-03-16T00:17:28.516Z,94508.72
2023-03-16T00:19:57.166Z,94506.53
2023-03-16T00:22:28.815Z,94510.63
2023-03-16T00:24:56.264Z,94514.09
2023-03-16T00:27:24.111Z,94506.84
2023-03-16T00:29:56.474Z,94516.97
2023-03-16T00:32:26.256Z,94507.50
2023-03-16T00:34:53.165Z,94501.78
2023-03-16T00:37:23.662Z,94498.94
2023-03-16T00:39:51.663Z,94503.69
2023-03-16T00:42:19.892Z,94500.03
2023-03-16T00:44:46.612Z,94495.63
2023-03-16T00:47:14.418Z,94493.25
2023-03-16T00:49:42.885Z,94496.44
2023-03-16T00:52:14.650Z,94493.72
2023-03-16T00:54:45.410Z,94496.75
2023-03-16T00:57:15.220Z,94493.72
2023-03-16T00:59:42.297Z,94496.25
2023-03-16T01:02:09.773Z,94490.72
2023-03-16T01:04:37.306Z,94497.84
2023-03-16T01:07:04.974Z,94487.09
2023-03-16T01:09:37.080Z,94488.34
2023-03-16T01:12:06.214Z,94490.22
2023-03-16T01:14:35.132Z,94482.00
2023-03-16T01:17:04.867Z,94480.59
2023-03-16T01:19:34.834Z,94477.13
2023-03-16T01:22:02.823Z,94474.09
2023-03-16T01:24:29.701Z,94468.41
2023-03-16T01:26:56.592Z,94477.59
2023-03-16T01:29:23.969Z,94475.38
2023-03-16T01:31:52.542Z,94473.28
2023-03-16T01:34:19.514Z,94474.59
2023-03-16T01:36:50.329Z,94469.66
2023-03-16T01:39:25.276Z,94466.50
2023-03-16T01:41:51.911Z,94460.34
2023-03-16T01:44:22.588Z,94472.22
2023-03-16T01:46:51.599Z,94464.16
2023-03-16T01:49:33.886Z,94467.16
2023-03-16T01:52:21.411Z,94463.53
2023-03-16T01:55:00.553Z,94458.63
2023-03-16T01:57:30.785Z,94469.22
2023-03-16T02:00:19.764Z,94462.59
2023-03-16T02:03:20.230Z,94465.28
2023-03-16T02:06:10.273Z,94451.84
2023-03-16T02:08:42.767Z,94452.47
2023-03-16T02:11:09.983Z,94451.34
2023-03-16T02:13:46.531Z,94457.84
2023-03-16T02:16:19.346Z,94451.22
2023-03-16T02:18:51.194Z,94441.41
2023-03-16T02:21:26.946Z,94445.03
2023-03-16T02:23:53.966Z,94438.56
2023-03-16T02:26:45.984Z,94440.78
2023-03-16T02:29:49.592Z,94446.66
2023-03-16T02:32:17.944Z,94446.50
2023-03-16T02:34:44.807Z,94439.06
2023-03-16T02:37:13.178Z,94435.59
2023-03-16T02:39:44.048Z,94436.22
2023-03-16T02:42:16.825Z,94432.88
2023-03-16T02:44:48.744Z,94428.31
2023-03-16T02:47:27.096Z,94429.44
2023-03-16T02:49:53.611Z,94426.13
2023-03-16T02:52:20.209Z,94418.53
2023-03-16T02:54:49.141Z,94423.41
2023-03-16T02:57:15.703Z,94418.53
2023-03-16T02:59:43.169Z,94415.84
2023-03-16T03:02:11.279Z,94416.78
2023-03-16T03:04:37.885Z,94418.84
2023-03-16T03:07:06.698Z,94414.28
2023-03-16T03:09:47.167Z,94417.88
2023-03-16T03:12:13.849Z,94415.22
2023-03-16T03:14:40.534Z,94411.88
2023-03-16T03:17:08.544Z,94406.50
2023-03-16T03:19:36.119Z,94414.72
2023-03-16T03:22:06.349Z,94412.53
2023-03-16T03:24:34.095Z,94413.31
2023-03-16T03:27:05.699Z,94411.72
2023-03-16T03:29:34.540Z,94408.72
2023-03-16T03:32:02.500Z,94407.78
2023-03-16T03:34:29.680Z,94403.34
2023-03-16T03:36:58.315Z,94407.63
2023-03-16T03:39:26.094Z,94403.50
2023-03-16T03:41:54.648Z,94402.72
2023-03-16T03:44:23.517Z,94408.72
2023-03-16T03:46:51.561Z,94408.28
2023-03-16T03:49:18.184Z,94399.88
2023-03-16T03:51:44.798Z,94403.06
2023-03-16T03:54:15.748Z,94398.78
2023-03-16T03:56:59.009Z,94402.13
2023-03-16T03:59:25.635Z,94407.28
2023-03-16T04:02:14.467Z,94401.16
2023-03-16T04:04:46.503Z,94394.84
2023-03-16T04:07:13.982Z,94398.00
2023-03-16T04:09:42.213Z,94405.59
2023-03-16T04:12:15.798Z,94402.09
2023-03-16T04:14:43.311Z,94395.16
2023-03-16T04:17:10.126Z,94399.59
2023-03-16T04:19:41.103Z,94403.97
2023-03-16T04:22:13.270Z,94397.50
2023-03-16T04:24:40.369Z,94393.09
2023-03-16T04:27:07.085Z,94388.03
2023-03-16T04:29:33.778Z,94387.09
2023-03-16T04:32:00.476Z,94383.94
2023-03-16T04:34:30.153Z,94379.50
2023-03-16T04:37:00.518Z,94372.72
2023-03-16T04:39:27.424Z,94371.00
2023-03-16T04:41:54.678Z,94365.59
2023-03-16T04:44:25.961Z,94366.34
2023-03-16T04:46:52.958Z,94366.78
2023-03-16T04:49:21.220Z,94360.81
2023-03-16T04:51:48.556Z,94360.06
2023-03-16T04:54:18.929Z,94364.78
2023-03-16T04:56:45.516Z,94375.22
2023-03-16T04:59:27.419Z,94371.28
2023-03-16T05:02:11.766Z,94366.06
2023-03-16T05:04:38.813Z,94369.22
2023-03-16T05:07:11.453Z,94358.50
2023-03-16T05:09:41.782Z,94358.63
2023-03-16T05:12:08.882Z,94362.22
2023-03-16T05:14:36.111Z,94364.59
2023-03-16T05:17:19.921Z,94356.22
2023-03-16T05:19:46.957Z,94358.63
2023-03-16T05:22:15.739Z,94348.81
2023-03-16T05:24:58.954Z,94348.53
2023-03-16T05:27:25.850Z,94358.13
2023-03-16T05:29:52.444Z,94348.22
2023-03-16T05:32:19.158Z,94356.28
2023-03-16T05:34:46.081Z,94352.47
2023-03-16T05:37:13.305Z,94346.94
2023-03-16T05:39:40.615Z,94349.94
2023-03-16T05:42:07.317Z,94349.16
2023-03-16T05:44:41.479Z,94344.88
2023-03-16T05:47:15.387Z,94342.03
2023-03-16T05:49:48.409Z,94342.66
2023-03-16T05:52:38.828Z,94341.56
2023-03-16T05:55:14.702Z,94342.38
2023-03-16T05:57:46.928Z,94349.47
2023-03-16T06:00:16.009Z,94351.34
2023-03-16T06:02:51.454Z,94346.31
2023-03-16T06:05:21.969Z,94346.63
2023-03-16T06:07:50.090Z,94351.34
2023-03-16T06:10:18.103Z,94349.44
2023-03-16T06:12:45.071Z,94356.09
2023-03-16T06:15:12.253Z,94354.66
2023-03-16T06:17:39.969Z,94348.19
2023-03-16T06:20:11.192Z,94348.28
2023-03-16T06:22:41.222Z,94351.63
2023-03-16T06:25:09.951Z,94359.41
2023-03-16T06:27:37.192Z,94350.81
2023-03-16T06:30:12.023Z,94352.22
2023-03-16T06:32:41.925Z,94356.66
2023-03-16T06:35:09.755Z,94366.34
2023-03-16T06:37:40.097Z,94372.31
2023-03-16T06:40:21.933Z,94362.81
2023-03-16T06:42:48.596Z,94363.09
2023-03-16T06:45:17.841Z,94362.81
2023-03-16T06:47:44.783Z,94362.53
2023-03-16T06:50:11.984Z,94359.28
2023-03-16T06:52:41.496Z,94358.44
2023-03-16T06:55:08.748Z,94358.13
2023-03-16T06:57:38.677Z,94358.06
2023-03-16T07:00:07.359Z,94355.66
2023-03-16T07:02:35.787Z,94354.63
2023-03-16T07:05:04.314Z,94359.78
2023-03-16T07:07:30.923Z,94355.34
2023-03-16T07:09:57.974Z,94355.13
2023-03-16T07:12:24.729Z,94359.31
2023-03-16T07:14:54.247Z,94354.75
2023-03-16T07:17:24.063Z,94358.81
2023-03-16T07:19:50.714Z,94361.22
2023-03-16T07:22:17.272Z,94366.75
2023-03-16T07:24:44.208Z,94369.84
2023-03-16T07:27:12.509Z,94371.88
2023-03-16T07:29:39.950Z,94372.28
2023-03-16T07:32:06.634Z,94372.19
2023-03-16T07:34:37.756Z,94369.50
2023-03-16T07:37:04.321Z,94370.72
2023-03-16T07:39:33.021Z,94360.72
2023-03-16T07:42:06.669Z,94353.03
2023-03-16T07:44:52.416Z,94355.38
2023-03-16T07:47:19.521Z,94357.25
2023-03-16T07:49:46.250Z,94352.59
2023-03-16T07:52:15.881Z,94350.19
2023-03-16T07:54:43.420Z,94347.06
2023-03-16T07:57:11.960Z,94337.53
2023-03-16T07:59:41.798Z,94345.31
2023-03-16T08:02:14.389Z,94333.09
2023-03-16T08:04:44.738Z,94324.81
2023-03-16T08:07:15.120Z,94331.00
2023-03-16T08:09:51.514Z,94340.59
2023-03-16T08:12:26.861Z,94328.28
2023-03-16T08:14:54.679Z,94327.41
2023-03-16T08:17:28.179Z,94316.03
2023-03-16T08:19:56.032Z,94314.00
2023-03-16T08:22:24.386Z,94311.88
2023-03-16T08:24:52.024Z,94316.72
2023-03-16T08:27:20.518Z,94315.75
2023-03-16T08:29:54.135Z,94310.47
2023-03-16T08:32:24.440Z,94312.91
2023-03-16T08:34:52.526Z,94312.63
2023-03-16T08:37:19.406Z,94312.75
2023-03-16T08:39:46.704Z,94311.19
2023-03-16T08:42:16.794Z,94312.75
2023-03-16T08:44:51.118Z,94314.97
2023-03-16T08:47:18.001Z,94319.72
2023-03-16T08:49:45.132Z,94322.84
2023-03-16T08:52:16.072Z,94310.41
2023-03-16T08:54:59.817Z,94309.03
2023-03-16T08:57:28.419Z,94307.09
2023-03-16T08:59:55.997Z,94312.44
2023-03-16T09:02:22.789Z,94310.44
2023-03-16T09:04:49.840Z,94311.22
2023-03-16T09:07:16.682Z,94316.44
2023-03-16T09:09:43.936Z,94315.63
2023-03-16T09:12:10.870Z,94322.50
2023-03-16T09:14:38.528Z,94321.00
2023-03-16T09:17:07.809Z,94319.75
2023-03-16T09:19:50.159Z,94322.09
2023-03-16T09:22:18.369Z,94324.41
2023-03-16T09:24:45.113Z,94329.88
2023-03-16T09:27:12.123Z,94319.00
2023-03-16T09:29:38.743Z,94322.41
2023-03-16T09:32:05.434Z,94321.50
2023-03-16T09:34:33.306Z,94302.44
2023-03-16T09:37:00.519Z,94298.00
2023-03-16T09:39:27.369Z,94292.19
2023-03-16T09:42:07.725Z,94293.25
2023-03-16T09:44:51.914Z,94284.34
2023-03-16T09:47:26.481Z,94272.19
2023-03-16T09:49:58.307Z,94274.16
2023-03-16T09:52:38.407Z,94272.69
2023-03-16T09:55:28.487Z,94287.13
2023-03-16T09:57:56.130Z,94272.94
2023-03-16T10:00:27.542Z,94274.09
2023-03-16T10:03:28.517Z,94272.63
2023-03-16T10:06:02.086Z,94269.13
2023-03-16T10:08:43.254Z,94266.47
2023-03-16T10:11:18.663Z,94265.22
2023-03-16T10:13:48.120Z,94272.78
2023-03-16T10:16:24.497Z,94270.03
2023-03-16T10:19:01.676Z,94270.25
2023-03-16T10:21:33.318Z,94261.81
2023-03-16T10:24:02.383Z,94258.63
2023-03-16T10:26:37.589Z,94248.97
2023-03-16T10:29:09.923Z,94260.03
2023-03-16T10:31:38.414Z,94259.28
2023-03-16T10:34:06.302Z,94255.06
2023-03-16T10:36:36.629Z,94259.03
2023-03-16T10:39:09.106Z,94266.81
2023-03-16T10:41:38.199Z,94256.31
2023-03-16T10:44:12.097Z,94266.09
2023-03-16T10:46:51.042Z,94257.13
2023-03-16T10:49:27.500Z,94255.19
2023-03-16T10:51:57.953Z,94248.91
2023-03-16T10:54:39.989Z,94243.84
2023-03-16T10:57:29.817Z,94241.13
2023-03-16T11:00:07.080Z,94248.56
2023-03-16T11:02:35.313Z,94228.22
2023-03-16T11:05:17.281Z,94233.31
2023-03-16T11:07:56.494Z,94236.41
2023-03-16T11:10:33.317Z,94238.75
2023-03-16T11:13:22.702Z,94244.19
2023-03-16T11:15:57.674Z,94227.31
2023-03-16T11:18:31.010Z,94234.41
2023-03-16T11:21:05.967Z,94223.41
2023-03-16T11:23:34.354Z,94219.44
2023-03-16T11:26:07.827Z,94225.56
2023-03-16T11:28:38.699Z,94222.13
2023-03-16T11:31:22.261Z,94206.06
2023-03-16T11:33:54.408Z,94205.78
2023-03-16T11:36:44.216Z,94208.78
2023-03-16T11:39:33.131Z,94209.88
2023-03-16T11:42:03.981Z,94205.75
2023-03-16T11:44:43.477Z,94207.81
2023-03-16T11:47:37.149Z,94209.91
2023-03-16T11:50:17.015Z,94207.78
2023-03-16T11:53:01.751Z,94199.50
2023-03-16T11:55:41.032Z,94196.44
2023-03-16T11:58:35.224Z,94195.16
2023-03-16T12:01:14.484Z,94187.72
2023-03-16T12:04:20.563Z,94181.19
2023-03-16T12:07:02.898Z,94191.09
2023-03-16T12:09:54.498Z,94183.75
2023-03-16T12:12:45.416Z,94188.84
2023-03-16T12:15:27.595Z,94196.78
2023-03-16T12:18:00.279Z,94195.03
2023-03-16T12:20:31.691Z,94194.78
2023-03-16T12:23:14.915Z,94185.84
2023-03-16T12:25:46.052Z,94194.50
2023-03-16T12:28:25.027Z,94187.34
2023-03-16T12:31:01.827Z,94175.94
2023-03-16T12:33:39.790Z,94173.81
2023-03-16T12:36:27.305Z,94169.25
2023-03-16T12:39:09.186Z,94173.66
2023-03-16T12:41:57.233Z,94163.88
2023-03-16T12:44:49.971Z,94165.72
2023-03-16T12:47:43.777Z,94161.72
2023-03-16T12:50:13.450Z,94165.56
2023-03-16T12:52:44.460Z,94160.97
2023-03-16T12:55:20.053Z,94157.81
2023-03-16T12:57:51.550Z,94150.91
2023-03-16T13:00:19.622Z,94157.28
2023-03-16T13:02:57.213Z,94147.34
2023-03-16T13:05:36.348Z,94147.09
2023-03-16T13:08:13.592Z,94151.28
2023-03-16T13:10:41.057Z,94149.19
2023-03-16T13:13:12.994Z,94136.03
2023-03-16T13:15:40.222Z,94150.88
2023-03-16T13:18:09.967Z,94141.09
2023-03-16T13:21:00.386Z,94137.16
2023-03-16T13:23:46.497Z,94133.34
2023-03-16T13:26:36.171Z,94126.19
2023-03-16T13:29:17.689Z,94131.22
2023-03-16T13:31:44.688Z,94132.25
2023-03-16T13:34:29.774Z,94125.16
2023-03-16T13:36:58.949Z,94125.72
2023-03-16T13:39:30.887Z,94120.41
2023-03-16T13:42:08.245Z,94122.16
2023-03-16T13:44:40.257Z,94127.97
2023-03-16T13:47:07.518Z,94110.50
2023-03-16T13:49:42.854Z,94111.63
2023-03-16T13:52:29.456Z,94113.53
2023-03-16T13:54:58.015Z,94113.81
2023-03-16T13:57:28.342Z,94116.69
2023-03-16T14:00:18.193Z,94124.81
2023-03-16T14:02:47.219Z,94111.38
2023-03-16T14:05:24.603Z,94115.34
2023-03-16T14:07:52.673Z,94110.78
2023-03-16T14:10:20.728Z,94115.78
2023-03-16T14:13:29.205Z,94098.13
2023-03-16T14:16:00.135Z,94082.69
2023-03-16T14:18:36.096Z,94079.97
2023-03-16T14:21:10.020Z,94080.28
2023-03-16T14:23:40.872Z,94088.19
2023-03-16T14:26:24.844Z,94088.50
2023-03-16T14:29:01.877Z,94089.03
2023-03-16T14:31:37.003Z,94094.53
2023-03-16T14:34:08.677Z,94094.97
2023-03-16T14:36:38.298Z,94095.50
2023-03-16T14:39:16.810Z,94097.94
2023-03-16T14:41:45.230Z,94088.97
2023-03-16T14:44:21.700Z,94091.25
2023-03-16T14:46:48.981Z,94086.22
2023-03-16T14:49:22.750Z,94089.03
2023-03-16T14:51:52.713Z,94086.25
2023-03-16T14:54:24.341Z,94091.81
2023-03-16T14:56:52.400Z,94080.97
2023-03-16T14:59:19.549Z,94085.66
2023-03-16T15:01:47.047Z,94079.13
2023-03-16T15:04:15.958Z,94088.19
2023-03-16T15:06:42.590Z,94082.41
2023-03-16T15:09:31.350Z,94076.94
2023-03-16T15:11:58.330Z,94086.38
2023-03-16T15:14:45.911Z,94078.53
2023-03-16T15:17:12.707Z,94076.94
2023-03-16T15:19:39.360Z,94078.91
2023-03-16T15:22:07.056Z,94074.84
2023-03-16T15:24:33.828Z,94082.91
2023-03-16T15:27:00.995Z,94083.78
2023-03-16T15:29:27.794Z,94078.41
2023-03-16T15:31:54.753Z,94083.41
2023-03-16T15:34:23.742Z,94078.66
2023-03-16T15:36:50.440Z,94082.50
2023-03-16T15:39:25.253Z,94086.38
2023-03-16T15:41:51.861Z,94088.34
2023-03-16T15:44:18.520Z,94087.78
2023-03-16T15:46:45.159Z,94088.63
2023-03-16T15:49:12.240Z,94092.53
2023-03-16T15:51:38.783Z,94084.72
2023-03-16T15:54:08.525Z,94082.53
2023-03-16T15:56:53.292Z,94083.69
2023-03-16T15:59:23.484Z,94078.28
2023-03-16T16:01:50.326Z,94073.19
2023-03-16T16:04:19.981Z,94081.94
2023-03-16T16:06:48.019Z,94087.50
2023-03-16T16:09:15.077Z,94082.84
2023-03-16T16:11:42.117Z,94080.16
2023-03-16T16:14:15.037Z,94070.38
2023-03-16T16:16:43.546Z,94069.19
2023-03-16T16:19:14.344Z,94074.72
2023-03-16T16:21:42.665Z,94068.97
2023-03-16T16:24:10.711Z,94083.06
2023-03-16T16:26:54.922Z,94082.28
2023-03-16T16:29:25.183Z,94081.91
2023-03-16T16:31:52.436Z,94087.78
2023-03-16T16:34:22.001Z,94080.41
2023-03-16T16:36:49.422Z,94085.97
2023-03-16T16:39:16.484Z,94085.25
2023-03-16T16:41:44.372Z,94084.88
2023-03-16T16:44:20.209Z,94086.44
2023-03-16T16:46:49.133Z,94081.38
2023-03-16T16:49:20.165Z,94077.47
2023-03-16T16:51:46.836Z,94083.34
2023-03-16T16:54:21.266Z,94080.63
2023-03-16T16:56:49.968Z,94079.09
2023-03-16T16:59:28.501Z,94086.94
2023-03-16T17:01:55.397Z,94075.66
2023-03-16T17:04:25.542Z,94084.25
2023-03-16T17:06:55.709Z,94080.34
2023-03-16T17:09:25.435Z,94084.63
2023-03-16T17:11:52.722Z,94072.16
2023-03-16T17:14:21.347Z,94080.00
2023-03-16T17:16:50.167Z,94088.19
2023-03-16T17:19:26.633Z,94087.38
2023-03-16T17:21:57.473Z,94088.53
2023-03-16T17:24:25.068Z,94093.59
2023-03-16T17:27:00.350Z,94085.41
2023-03-16T17:29:33.861Z,94090.88
2023-03-16T17:32:03.527Z,94095.16
2023-03-16T17:34:33.191Z,94101.75
2023-03-16T17:37:01.833Z,94098.22
2023-03-16T17:39:42.849Z,94096.66
2023-03-16T17:42:20.324Z,94093.50
2023-03-16T17:44:50.565Z,94095.09
2023-03-16T17:47:22.589Z,94100.53
2023-03-16T17:49:50.663Z,94095.81
2023-03-16T17:52:23.560Z,94095.44
2023-03-16T17:54:52.102Z,94098.50
2023-03-16T17:57:24.416Z,94095.41
2023-03-16T17:59:51.364Z,94094.53
2023-03-16T18:03:04.372Z,94093.34
2023-03-16T18:05:34.434Z,94091.75
2023-03-16T18:08:12.962Z,94090.13
2023-03-16T18:10:40.683Z,94084.22
2023-03-16T18:13:24.154Z,94081.41
2023-03-16T18:15:51.966Z,94083.66
2023-03-16T18:18:21.845Z,94079.03
2023-03-16T18:20:49.409Z,94076.78
2023-03-16T18:23:18.341Z,94081.06
2023-03-16T18:25:46.067Z,94075.53
2023-03-16T18:28:13.968Z,94076.28
2023-03-16T18:30:43.214Z,94089.03
2023-03-16T18:33:30.439Z,94082.38
2023-03-16T18:36:03.376Z,94075.09
2023-03-16T18:38:33.836Z,94070.41
2023-03-16T18:41:04.603Z,94077.84
2023-03-16T18:43:31.288Z,94075.84
2023-03-16T18:45:58.002Z,94070.38
2023-03-16T18:48:31.175Z,94065.63
2023-03-16T18:50:58.499Z,94067.84
2023-03-16T18:53:28.978Z,94069.31
2023-03-16T18:55:57.540Z,94073.16
2023-03-16T18:58:25.367Z,94075.03
2023-03-16T19:00:57.660Z,94071.38
2023-03-16T19:03:28.284Z,94073.56
2023-03-16T19:05:57.011Z,94074.22
2023-03-16T19:08:25.695Z,94067.91
2023-03-16T19:10:56.461Z,94061.06
2023-03-16T19:13:24.952Z,94072.19
2023-03-16T19:15:53.926Z,94072.81
2023-03-16T19:18:22.654Z,94074.66
2023-03-16T19:20:51.023Z,94071.16
2023-03-16T19:23:32.709Z,94073.47
2023-03-16T19:25:59.427Z,94070.38
2023-03-16T19:28:29.178Z,94068.47
2023-03-16T19:31:00.094Z,94069.50
2023-03-16T19:33:28.549Z,94063.47
2023-03-16T19:35:56.928Z,94073.16
2023-03-16T19:38:25.192Z,94067.56
2023-03-16T19:40:58.106Z,94069.50
2023-03-16T19:43:25.938Z,94069.09
2023-03-16T19:45:52.917Z,94068.81
2023-03-16T19:48:26.185Z,94064.38
2023-03-16T19:50:53.431Z,94054.59
2023-03-16T19:53:22.570Z,94052.88
2023-03-16T19:55:51.890Z,94058.47
2023-03-16T19:58:30.869Z,94048.28
2023-03-16T20:00:58.977Z,94051.72
2023-03-16T20:03:26.151Z,94051.59
2023-03-16T20:05:53.183Z,94051.69
2023-03-16T20:08:25.808Z,94061.31
2023-03-16T20:10:59.229Z,94056.84
2023-03-16T20:13:25.930Z,94056.94
2023-03-16T20:15:53.320Z,94047.34
2023-03-16T20:18:20.146Z,94053.25
2023-03-16T20:20:47.631Z,94049.75
2023-03-16T20:23:32.647Z,94048.38
2023-03-16T20:26:02.787Z,94043.03
2023-03-16T20:28:36.155Z,94047.47
2023-03-16T20:31:07.840Z,94049.06
2023-03-16T20:33:34.324Z,94042.25
2023-03-16T20:36:01.153Z,94053.25
2023-03-16T20:38:27.918Z,94048.47
2023-03-16T20:40:54.924Z,94051.19
2023-03-16T20:43:28.943Z,94045.34
2023-03-16T20:46:01.491Z,94046.97
2023-03-16T20:48:30.836Z,94036.41
2023-03-16T20:51:00.067Z,94047.69
2023-03-16T20:53:29.363Z,94035.63
2023-03-16T20:55:56.828Z,94038.88
2023-03-16T20:58:26.280Z,94043.44
2023-03-16T21:00:57.662Z,94032.53
2023-03-16T21:03:27.532Z,94032.47
2023-03-16T21:05:59.644Z,94045.44
2023-03-16T21:08:27.728Z,94033.56
2023-03-16T21:10:59.662Z,94033.66
2023-03-16T21:13:29.588Z,94027.72
2023-03-16T21:15:58.921Z,94031.63
2023-03-16T21:18:25.830Z,94031.31
2023-03-16T21:20:56.324Z,94029.06
2023-03-16T21:23:23.832Z,94030.97
2023-03-16T21:25:56.995Z,94028.00
2023-03-16T21:28:27.535Z,94027.09
2023-03-16T21:30:57.512Z,94026.81
2023-03-16T21:33:27.071Z,94023.47
2023-03-16T21:35:53.674Z,94015.47
2023-03-16T21:38:20.876Z,94014.31
2023-03-16T21:40:48.597Z,94011.81
2023-03-16T21:43:17.550Z,94009.56
2023-03-16T21:45:46.049Z,94010.47
2023-03-16T21:48:17.307Z,94020.13
2023-03-16T21:50:45.639Z,94013.56
2023-03-16T21:53:29.043Z,94017.03
2023-03-16T21:55:56.481Z,94017.69
2023-03-16T21:58:24.103Z,94010.66
2023-03-16T22:00:52.655Z,94000.06
2023-03-16T22:03:24.177Z,94003.13
2023-03-16T22:05:52.226Z,93990.38
2023-03-16T22:08:24.486Z,93988.13
2023-03-16T22:10:52.056Z,93993.06
2023-03-16T22:13:19.262Z,93990.19
2023-03-16T22:15:48.492Z,93981.63
2023-03-16T22:18:36.837Z,93983.50
2023-03-16T22:21:20.280Z,93989.75
2023-03-16T22:23:47.267Z,93983.09
2023-03-16T22:26:18.359Z,93976.44
2023-03-16T22:28:46.569Z,93978.00
2023-03-16T22:31:16.922Z,93970.91
2023-03-16T22:33:45.818Z,93962.56
2023-03-16T22:36:17.843Z,93956.41
2023-03-16T22:38:44.819Z,93970.38
2023-03-16T22:41:14.296Z,93970.59
2023-03-16T22:43:43.213Z,93972.72
2023-03-16T22:46:19.514Z,93973.66
2023-03-16T22:48:46.674Z,93977.69
2023-03-16T22:51:36.340Z,93964.34
2023-03-16T22:54:08.863Z,93969.72
2023-03-16T22:56:36.086Z,93965.78
2023-03-16T22:59:06.627Z,93973.25
2023-03-16T23:01:44.061Z,93975.41
2023-03-16T23:04:19.978Z,93982.78
2023-03-16T23:06:52.937Z,93986.81
2023-03-16T23:09:21.841Z,93979.94
2023-03-16T23:11:53.625Z,93978.88
2023-03-16T23:14:27.179Z,93984.88
2023-03-16T23:16:54.018Z,93978.19
2023-03-16T23:19:27.622Z,93970.91
2023-03-16T23:21:56.966Z,93973.03
2023-03-16T23:24:23.938Z,93967.75
2023-03-16T23:26:52.163Z,93978.44
2023-03-16T23:29:19.189Z,93974.91
2023-03-16T23:31:46.198Z,93974.53
2023-03-16T23:34:15.764Z,93974.81
2023-03-16T23:36:43.240Z,93970.19
2023-03-16T23:39:10.649Z,93974.47
2023-03-16T23:41:39.639Z,93970.50
2023-03-16T23:44:07.817Z,93979.22
2023-03-16T23:46:35.419Z,93972.16
2023-03-16T23:49:05.009Z,93974.38
2023-03-16T23:51:36.074Z,93977.50
2023-03-16T23:54:14.035Z,93972.53
2023-03-16T23:56:40.898Z,93968.63
2023-03-16T23:59:07.512Z,93963.47
